Pagrindinis puslapis
METAR-TAF:

METAR-TAF

Oro uostai :

St. Augustine Airport

Sent Ogastinas, Florida, Jungtinės Amerikos Valstijos

platuma: 29-57-33N, ilguma: 081-20-23W, Aukštis: 3 m

Dabartinis oras

Ataskaita buvo paskelbta 15 minutes, ne 17:56 UTC
Vėjas 3 kt nuo kintamojo kryptimis
Temperatūra 23°C
Drėgmė 44%
Slėgis 1014 hPa
Matomumas: 16.1 km
Giedras dangus

METAR: KSGJ 171756Z VRB03KT 10SM CLR 23/10 A2995 RMK AO2 SLP139 T02280100 10228 20167 58013 $

Laikas: 14:11 (18:11 UTC)

Prognozė

Ataskaita buvo paskelbta 51 minutes, ne 17:20 UTC
Prognozė galioja nuo 17 metu 18 UTC su 18 metu 18 UTC
Vėjas 7 kt iš Šiaurės Rytų
Matomumas: 10 km
Su prošvaistėmis ne aukštis 25000 ft
Nuo 17 metu 2300 UTC
Vėjas 3 kt nuo kintamojo kryptimis
Matomumas: 10 km
Apsiniaukę ne aukštis 25000 ft
Nuo 18 metu 1500 UTC
Vėjas 8 kt iš Rytų/Šiaurės Rytų
Matomumas: 10 km
Su prošvaistėmis ne aukštis 10000 ft
Apsiniaukę ne aukštis 25000 ft

TAF: KSGJ 171720Z 1718/1818 05007KT P6SM BKN250 FM172300 VRB03KT P6SM OVC250 FM181500 06008KT P6SM BKN100 OVC250

Orai ataskaitas ir orų prognozės (METAR, TAF).

turimą stotys yra geltonos ir raudonos taškus žemėlapyje.

Perkelti pele per norėdami pamatyti stoties vardą.

Tada spustelėkite, norėdami matyti oro stebėjimo ir prognozės.

Norėdami pakeisti žemėlapį: spustelėkite ant žalios mygtukų su juodo kryžiaus žemyn,; žalią mygtuką su brūkšneliu, jei norite nutolinti; arba žalių rodyklių gretimoms žemėlapius.


METAR-TAF: